Terminal Aerodrome Forecast
Issued by NWS

Home | Current Version | Previous Version | Text Only | Print | Product List | Glossary On
Versions: 1 2 3 4 5 6 7 8 9 10 11 12 13 14 15 16 17
447
FTUS45 KRIW 051728
TAFCPR
TAF
KCPR 051728Z 0518/0618 22018G28KT P6SM SCT250
     FM060800 22022G32KT P6SM SCT250=

USA.gov is the U.S. government's official web portal to all federal, state and local government web resources and services.